sensor_id;sensor_type;location;lat;lon;timestamp;temperature;humidity
27306;DHT22;14792;50.886;6.468;2023-12-22T00:02:03;6.90;99.90
27306;DHT22;14792;50.886;6.468;2023-12-22T00:05:04;6.90;99.90
27306;DHT22;14792;50.886;6.468;2023-12-22T00:08:06;6.90;99.90
27306;DHT22;14792;50.886;6.468;2023-12-22T00:11:07;6.80;99.90
27306;DHT22;14792;50.886;6.468;2023-12-22T00:14:09;6.30;99.90
27306;DHT22;14792;50.886;6.468;2023-12-22T00:17:11;6.10;99.90
27306;DHT22;14792;50.886;6.468;2023-12-22T00:20:13;5.60;99.90
27306;DHT22;14792;50.886;6.468;2023-12-22T00:23:14;5.50;99.90
27306;DHT22;14792;50.886;6.468;2023-12-22T00:26:16;5.50;99.90
27306;DHT22;14792;50.886;6.468;2023-12-22T00:29:20;5.60;99.90
27306;DHT22;14792;50.886;6.468;2023-12-22T00:32:21;5.80;99.90
27306;DHT22;14792;50.886;6.468;2023-12-22T00:35:23;5.70;99.90
27306;DHT22;14792;50.886;6.468;2023-12-22T00:38:24;5.70;99.90
27306;DHT22;14792;50.886;6.468;2023-12-22T00:41:26;5.80;99.90
27306;DHT22;14792;50.886;6.468;2023-12-22T00:44:28;5.80;99.90
27306;DHT22;14792;50.886;6.468;2023-12-22T00:47:29;5.80;99.90
27306;DHT22;14792;50.886;6.468;2023-12-22T00:50:31;5.80;99.90
27306;DHT22;14792;50.886;6.468;2023-12-22T00:53:32;5.90;99.90
27306;DHT22;14792;50.886;6.468;2023-12-22T00:56:34;5.90;99.90
27306;DHT22;14792;50.886;6.468;2023-12-22T00:59:36;5.90;99.90
27306;DHT22;14792;50.886;6.468;2023-12-22T01:02:38;6.00;99.90
27306;DHT22;14792;50.886;6.468;2023-12-22T01:05:39;6.00;99.90
27306;DHT22;14792;50.886;6.468;2023-12-22T01:08:41;6.20;99.90
27306;DHT22;14792;50.886;6.468;2023-12-22T01:11:42;6.30;99.90
27306;DHT22;14792;50.886;6.468;2023-12-22T01:14:44;6.30;99.90
27306;DHT22;14792;50.886;6.468;2023-12-22T01:17:46;6.40;99.90
27306;DHT22;14792;50.886;6.468;2023-12-22T01:20:48;6.40;99.90
27306;DHT22;14792;50.886;6.468;2023-12-22T01:23:49;6.40;99.90
27306;DHT22;14792;50.886;6.468;2023-12-22T01:26:51;6.40;99.90
27306;DHT22;14792;50.886;6.468;2023-12-22T01:29:52;6.40;99.90
27306;DHT22;14792;50.886;6.468;2023-12-22T01:32:54;6.50;99.90
27306;DHT22;14792;50.886;6.468;2023-12-22T01:35:56;6.50;99.90
27306;DHT22;14792;50.886;6.468;2023-12-22T01:38:58;6.60;99.90
27306;DHT22;14792;50.886;6.468;2023-12-22T01:41:59;6.60;99.90
27306;DHT22;14792;50.886;6.468;2023-12-22T01:45:01;6.60;99.90
27306;DHT22;14792;50.886;6.468;2023-12-22T01:48:02;6.70;99.90
27306;DHT22;14792;50.886;6.468;2023-12-22T01:51:04;6.70;99.90
27306;DHT22;14792;50.886;6.468;2023-12-22T01:54:06;6.70;99.90
27306;DHT22;14792;50.886;6.468;2023-12-22T01:57:07;6.90;99.90
27306;DHT22;14792;50.886;6.468;2023-12-22T02:00:09;7.00;99.90
27306;DHT22;14792;50.886;6.468;2023-12-22T02:03:10;7.10;99.90
27306;DHT22;14792;50.886;6.468;2023-12-22T02:06:18;7.10;99.90
27306;DHT22;14792;50.886;6.468;2023-12-22T02:37:19;6.80;99.90
27306;DHT22;14792;50.886;6.468;2023-12-22T02:48:15;6.90;99.90
27306;DHT22;14792;50.886;6.468;2023-12-22T02:55:16;7.00;99.90
27306;DHT22;14792;50.886;6.468;2023-12-22T02:58:17;7.20;99.90
27306;DHT22;14792;50.886;6.468;2023-12-22T03:01:19;7.20;99.90
27306;DHT22;14792;50.886;6.468;2023-12-22T03:04:21;7.10;99.90
27306;DHT22;14792;50.886;6.468;2023-12-22T03:07:22;7.10;99.90
27306;DHT22;14792;50.886;6.468;2023-12-22T03:10:24;7.10;99.90
27306;DHT22;14792;50.886;6.468;2023-12-22T03:13:25;7.10;99.90
27306;DHT22;14792;50.886;6.468;2023-12-22T03:16:27;7.00;99.90
27306;DHT22;14792;50.886;6.468;2023-12-22T03:19:28;7.00;99.90
27306;DHT22;14792;50.886;6.468;2023-12-22T03:22:30;7.10;99.90
27306;DHT22;14792;50.886;6.468;2023-12-22T03:25:32;7.10;99.90
27306;DHT22;14792;50.886;6.468;2023-12-22T03:28:33;7.20;99.90
27306;DHT22;14792;50.886;6.468;2023-12-22T03:31:35;7.30;99.90
27306;DHT22;14792;50.886;6.468;2023-12-22T03:34:36;7.20;99.90
27306;DHT22;14792;50.886;6.468;2023-12-22T03:37:38;7.00;99.90
27306;DHT22;14792;50.886;6.468;2023-12-22T03:40:40;6.80;99.90
27306;DHT22;14792;50.886;6.468;2023-12-22T03:43:41;6.60;99.90
27306;DHT22;14792;50.886;6.468;2023-12-22T03:46:43;6.40;99.90
27306;DHT22;14792;50.886;6.468;2023-12-22T03:49:44;6.20;99.90
27306;DHT22;14792;50.886;6.468;2023-12-22T03:52:46;6.10;99.90
27306;DHT22;14792;50.886;6.468;2023-12-22T03:55:47;6.00;99.90
27306;DHT22;14792;50.886;6.468;2023-12-22T03:58:49;6.00;99.90
27306;DHT22;14792;50.886;6.468;2023-12-22T04:01:52;6.00;99.90
27306;DHT22;14792;50.886;6.468;2023-12-22T04:04:55;5.90;99.90
27306;DHT22;14792;50.886;6.468;2023-12-22T04:07:57;5.90;99.90
27306;DHT22;14792;50.886;6.468;2023-12-22T04:10:58;5.90;99.90
27306;DHT22;14792;50.886;6.468;2023-12-22T04:14:00;6.00;99.90
27306;DHT22;14792;50.886;6.468;2023-12-22T04:17:02;6.00;99.90
27306;DHT22;14792;50.886;6.468;2023-12-22T04:20:03;6.10;99.90
27306;DHT22;14792;50.886;6.468;2023-12-22T04:23:05;6.30;99.90
27306;DHT22;14792;50.886;6.468;2023-12-22T04:26:06;6.50;99.90
27306;DHT22;14792;50.886;6.468;2023-12-22T04:29:08;6.60;99.90
27306;DHT22;14792;50.886;6.468;2023-12-22T04:32:10;6.70;99.90
27306;DHT22;14792;50.886;6.468;2023-12-22T04:35:17;6.80;99.90
27306;DHT22;14792;50.886;6.468;2023-12-22T04:38:19;6.90;99.90
27306;DHT22;14792;50.886;6.468;2023-12-22T04:41:20;6.90;99.90
27306;DHT22;14792;50.886;6.468;2023-12-22T04:44:22;7.00;99.90
27306;DHT22;14792;50.886;6.468;2023-12-22T04:47:24;7.10;99.90
27306;DHT22;14792;50.886;6.468;2023-12-22T04:50:25;7.10;99.90
27306;DHT22;14792;50.886;6.468;2023-12-22T04:53:27;7.10;99.90
27306;DHT22;14792;50.886;6.468;2023-12-22T04:56:28;7.10;99.90
27306;DHT22;14792;50.886;6.468;2023-12-22T04:59:30;7.20;99.90
27306;DHT22;14792;50.886;6.468;2023-12-22T05:02:32;7.20;99.90
27306;DHT22;14792;50.886;6.468;2023-12-22T05:05:33;7.30;99.90
27306;DHT22;14792;50.886;6.468;2023-12-22T05:08:35;7.30;99.90
27306;DHT22;14792;50.886;6.468;2023-12-22T05:11:36;7.40;99.90
27306;DHT22;14792;50.886;6.468;2023-12-22T05:14:38;7.60;99.90
27306;DHT22;14792;50.886;6.468;2023-12-22T05:17:39;7.50;99.90
27306;DHT22;14792;50.886;6.468;2023-12-22T05:20:41;7.60;99.90
27306;DHT22;14792;50.886;6.468;2023-12-22T05:23:43;7.70;99.90
27306;DHT22;14792;50.886;6.468;2023-12-22T05:26:44;7.70;99.90
27306;DHT22;14792;50.886;6.468;2023-12-22T05:29:46;7.80;99.90
27306;DHT22;14792;50.886;6.468;2023-12-22T05:32:47;7.80;99.90
27306;DHT22;14792;50.886;6.468;2023-12-22T05:35:49;7.90;99.90
27306;DHT22;14792;50.886;6.468;2023-12-22T05:38:51;7.90;99.90
27306;DHT22;14792;50.886;6.468;2023-12-22T05:41:52;7.90;99.90
27306;DHT22;14792;50.886;6.468;2023-12-22T05:44:54;7.90;99.90
27306;DHT22;14792;50.886;6.468;2023-12-22T05:47:55;7.90;99.90
27306;DHT22;14792;50.886;6.468;2023-12-22T05:50:57;7.90;99.90
27306;DHT22;14792;50.886;6.468;2023-12-22T05:53:58;7.90;99.90
27306;DHT22;14792;50.886;6.468;2023-12-22T05:57:00;7.80;99.90
27306;DHT22;14792;50.886;6.468;2023-12-22T06:00:02;7.70;99.90
27306;DHT22;14792;50.886;6.468;2023-12-22T06:03:03;7.60;99.90
27306;DHT22;14792;50.886;6.468;2023-12-22T06:06:05;7.50;99.90
27306;DHT22;14792;50.886;6.468;2023-12-22T06:09:06;7.50;99.90
27306;DHT22;14792;50.886;6.468;2023-12-22T06:12:08;7.50;99.90
27306;DHT22;14792;50.886;6.468;2023-12-22T06:15:10;7.50;99.90
27306;DHT22;14792;50.886;6.468;2023-12-22T06:18:12;7.50;99.90
27306;DHT22;14792;50.886;6.468;2023-12-22T06:33:15;7.10;99.90
27306;DHT22;14792;50.886;6.468;2023-12-22T06:48:15;6.90;99.90
27306;DHT22;14792;50.886;6.468;2023-12-22T06:59:15;6.80;99.90
27306;DHT22;14792;50.886;6.468;2023-12-22T07:06:19;7.10;99.90
27306;DHT22;14792;50.886;6.468;2023-12-22T07:12:23;7.30;99.90
27306;DHT22;14792;50.886;6.468;2023-12-22T07:15:25;7.40;99.90
27306;DHT22;14792;50.886;6.468;2023-12-22T07:18:26;7.40;99.90
27306;DHT22;14792;50.886;6.468;2023-12-22T07:21:28;7.50;99.90
27306;DHT22;14792;50.886;6.468;2023-12-22T07:24:30;7.50;99.90
27306;DHT22;14792;50.886;6.468;2023-12-22T07:27:32;7.50;99.90
27306;DHT22;14792;50.886;6.468;2023-12-22T07:30:33;7.50;99.90
27306;DHT22;14792;50.886;6.468;2023-12-22T07:33:35;7.60;99.90
27306;DHT22;14792;50.886;6.468;2023-12-22T07:36:36;7.60;99.90
27306;DHT22;14792;50.886;6.468;2023-12-22T07:39:38;7.60;99.90
27306;DHT22;14792;50.886;6.468;2023-12-22T07:42:40;7.60;99.90
27306;DHT22;14792;50.886;6.468;2023-12-22T07:45:42;7.60;99.90
27306;DHT22;14792;50.886;6.468;2023-12-22T07:49:17;7.60;99.90
27306;DHT22;14792;50.886;6.468;2023-12-22T07:52:19;7.60;99.90
27306;DHT22;14792;50.886;6.468;2023-12-22T07:55:20;7.60;99.90
27306;DHT22;14792;50.886;6.468;2023-12-22T07:58:22;7.70;99.90
27306;DHT22;14792;50.886;6.468;2023-12-22T08:01:23;7.70;99.90
27306;DHT22;14792;50.886;6.468;2023-12-22T08:04:25;7.80;99.90
27306;DHT22;14792;50.886;6.468;2023-12-22T08:07:27;7.70;99.90
27306;DHT22;14792;50.886;6.468;2023-12-22T08:10:28;7.80;99.90
27306;DHT22;14792;50.886;6.468;2023-12-22T08:13:30;7.80;99.90
27306;DHT22;14792;50.886;6.468;2023-12-22T08:16:31;7.80;99.90
27306;DHT22;14792;50.886;6.468;2023-12-22T08:19:33;7.90;99.90
27306;DHT22;14792;50.886;6.468;2023-12-22T08:22:35;7.90;99.90
27306;DHT22;14792;50.886;6.468;2023-12-22T08:29:18;7.90;99.90
27306;DHT22;14792;50.886;6.468;2023-12-22T08:32:19;7.90;99.90
27306;DHT22;14792;50.886;6.468;2023-12-22T08:35:21;7.90;99.90
27306;DHT22;14792;50.886;6.468;2023-12-22T08:38:22;7.90;99.90
27306;DHT22;14792;50.886;6.468;2023-12-22T08:41:24;7.90;99.90
27306;DHT22;14792;50.886;6.468;2023-12-22T08:44:25;8.00;99.90
27306;DHT22;14792;50.886;6.468;2023-12-22T08:47:27;7.90;99.90
27306;DHT22;14792;50.886;6.468;2023-12-22T08:50:29;7.90;99.90
27306;DHT22;14792;50.886;6.468;2023-12-22T08:53:31;8.00;99.90
27306;DHT22;14792;50.886;6.468;2023-12-22T08:56:32;8.00;99.90
27306;DHT22;14792;50.886;6.468;2023-12-22T08:59:34;8.00;99.90
27306;DHT22;14792;50.886;6.468;2023-12-22T09:02:35;8.00;99.90
27306;DHT22;14792;50.886;6.468;2023-12-22T09:05:37;8.10;99.90
27306;DHT22;14792;50.886;6.468;2023-12-22T09:08:38;8.10;99.90
27306;DHT22;14792;50.886;6.468;2023-12-22T09:11:40;8.10;99.90
27306;DHT22;14792;50.886;6.468;2023-12-22T09:14:42;8.10;99.90
27306;DHT22;14792;50.886;6.468;2023-12-22T09:17:43;8.10;99.90
27306;DHT22;14792;50.886;6.468;2023-12-22T09:20:45;8.20;99.90
27306;DHT22;14792;50.886;6.468;2023-12-22T09:23:46;8.20;99.90
27306;DHT22;14792;50.886;6.468;2023-12-22T09:26:48;8.30;99.90
27306;DHT22;14792;50.886;6.468;2023-12-22T09:29:49;8.30;99.90
27306;DHT22;14792;50.886;6.468;2023-12-22T09:32:51;8.30;99.90
27306;DHT22;14792;50.886;6.468;2023-12-22T09:35:53;8.40;99.90
27306;DHT22;14792;50.886;6.468;2023-12-22T09:39:15;8.40;99.90
27306;DHT22;14792;50.886;6.468;2023-12-22T09:42:17;8.40;99.90
27306;DHT22;14792;50.886;6.468;2023-12-22T09:45:18;8.40;99.90
27306;DHT22;14792;50.886;6.468;2023-12-22T09:48:20;8.40;99.90
27306;DHT22;14792;50.886;6.468;2023-12-22T09:51:22;8.40;99.90
27306;DHT22;14792;50.886;6.468;2023-12-22T09:54:23;8.30;99.90
27306;DHT22;14792;50.886;6.468;2023-12-22T09:57:25;8.30;99.90
27306;DHT22;14792;50.886;6.468;2023-12-22T10:00:26;8.30;99.90
27306;DHT22;14792;50.886;6.468;2023-12-22T10:03:28;8.30;99.90
27306;DHT22;14792;50.886;6.468;2023-12-22T10:06:29;8.30;99.90
27306;DHT22;14792;50.886;6.468;2023-12-22T10:09:31;8.30;99.90
27306;DHT22;14792;50.886;6.468;2023-12-22T10:12:33;8.30;99.90
27306;DHT22;14792;50.886;6.468;2023-12-22T10:15:34;8.30;99.90
27306;DHT22;14792;50.886;6.468;2023-12-22T10:18:36;8.20;99.90
27306;DHT22;14792;50.886;6.468;2023-12-22T10:21:37;8.30;99.90
27306;DHT22;14792;50.886;6.468;2023-12-22T10:24:42;8.30;99.90
27306;DHT22;14792;50.886;6.468;2023-12-22T10:27:43;8.30;99.90
27306;DHT22;14792;50.886;6.468;2023-12-22T10:30:45;8.30;99.90
27306;DHT22;14792;50.886;6.468;2023-12-22T10:33:46;8.30;99.90
27306;DHT22;14792;50.886;6.468;2023-12-22T10:41:15;8.30;99.90
27306;DHT22;14792;50.886;6.468;2023-12-22T11:00:15;8.60;99.90
27306;DHT22;14792;50.886;6.468;2023-12-22T11:11:17;8.90;99.90
27306;DHT22;14792;50.886;6.468;2023-12-22T11:30:16;9.20;99.90
27306;DHT22;14792;50.886;6.468;2023-12-22T11:53:20;9.50;99.90
27306;DHT22;14792;50.886;6.468;2023-12-22T12:04:14;9.60;99.90
27306;DHT22;14792;50.886;6.468;2023-12-22T12:10:51;9.70;99.90
27306;DHT22;14792;50.886;6.468;2023-12-22T12:13:52;9.80;99.90
27306;DHT22;14792;50.886;6.468;2023-12-22T12:17:08;9.80;99.90
27306;DHT22;14792;50.886;6.468;2023-12-22T12:20:10;9.80;99.90
27306;DHT22;14792;50.886;6.468;2023-12-22T12:23:18;9.80;99.90
27306;DHT22;14792;50.886;6.468;2023-12-22T12:26:19;9.80;99.90
27306;DHT22;14792;50.886;6.468;2023-12-22T12:29:21;9.90;99.90
27306;DHT22;14792;50.886;6.468;2023-12-22T12:32:23;9.90;99.90
27306;DHT22;14792;50.886;6.468;2023-12-22T12:35:24;9.90;99.90
27306;DHT22;14792;50.886;6.468;2023-12-22T12:41:45;9.70;99.90
27306;DHT22;14792;50.886;6.468;2023-12-22T12:44:47;9.70;99.90
27306;DHT22;14792;50.886;6.468;2023-12-22T12:47:58;9.70;99.90
27306;DHT22;14792;50.886;6.468;2023-12-22T12:51:06;9.60;99.90
27306;DHT22;14792;50.886;6.468;2023-12-22T12:54:07;9.60;99.90
27306;DHT22;14792;50.886;6.468;2023-12-22T12:57:05;9.70;99.90
27306;DHT22;14792;50.886;6.468;2023-12-22T13:00:07;9.60;99.90
27306;DHT22;14792;50.886;6.468;2023-12-22T13:03:09;9.70;99.90
27306;DHT22;14792;50.886;6.468;2023-12-22T13:06:10;9.80;99.90
27306;DHT22;14792;50.886;6.468;2023-12-22T13:09:12;9.80;99.90
27306;DHT22;14792;50.886;6.468;2023-12-22T13:12:16;9.70;99.90
27306;DHT22;14792;50.886;6.468;2023-12-22T13:15:18;9.70;99.90
27306;DHT22;14792;50.886;6.468;2023-12-22T13:18:19;9.70;99.90
27306;DHT22;14792;50.886;6.468;2023-12-22T13:21:21;9.70;99.90
27306;DHT22;14792;50.886;6.468;2023-12-22T13:24:23;9.70;99.90
27306;DHT22;14792;50.886;6.468;2023-12-22T13:27:24;9.70;99.90
27306;DHT22;14792;50.886;6.468;2023-12-22T13:30:35;9.80;99.90
27306;DHT22;14792;50.886;6.468;2023-12-22T13:33:36;9.80;99.90
27306;DHT22;14792;50.886;6.468;2023-12-22T13:36:38;9.80;99.90
27306;DHT22;14792;50.886;6.468;2023-12-22T13:39:39;9.80;99.90
27306;DHT22;14792;50.886;6.468;2023-12-22T13:42:41;9.80;99.90
27306;DHT22;14792;50.886;6.468;2023-12-22T13:45:43;9.80;99.90
27306;DHT22;14792;50.886;6.468;2023-12-22T13:48:44;9.80;99.90
27306;DHT22;14792;50.886;6.468;2023-12-22T13:51:46;9.80;99.90
27306;DHT22;14792;50.886;6.468;2023-12-22T13:54:50;9.80;99.90
27306;DHT22;14792;50.886;6.468;2023-12-22T13:57:58;9.80;99.90
27306;DHT22;14792;50.886;6.468;2023-12-22T14:00:53;9.80;99.90
27306;DHT22;14792;50.886;6.468;2023-12-22T14:03:54;9.80;99.90
27306;DHT22;14792;50.886;6.468;2023-12-22T14:06:56;9.80;99.90
27306;DHT22;14792;50.886;6.468;2023-12-22T14:10:03;9.80;99.90
27306;DHT22;14792;50.886;6.468;2023-12-22T14:12:59;9.80;99.90
27306;DHT22;14792;50.886;6.468;2023-12-22T14:16:01;9.80;99.90
27306;DHT22;14792;50.886;6.468;2023-12-22T14:19:02;9.80;99.90
27306;DHT22;14792;50.886;6.468;2023-12-22T14:22:04;9.80;99.90
27306;DHT22;14792;50.886;6.468;2023-12-22T14:25:06;9.80;99.90
27306;DHT22;14792;50.886;6.468;2023-12-22T14:28:07;9.70;99.90
27306;DHT22;14792;50.886;6.468;2023-12-22T14:31:09;9.60;99.90
27306;DHT22;14792;50.886;6.468;2023-12-22T14:34:12;9.60;99.90
27306;DHT22;14792;50.886;6.468;2023-12-22T14:37:12;9.50;99.90
27306;DHT22;14792;50.886;6.468;2023-12-22T14:40:14;9.50;99.90
27306;DHT22;14792;50.886;6.468;2023-12-22T14:43:15;9.40;99.90
27306;DHT22;14792;50.886;6.468;2023-12-22T14:46:17;9.40;99.90
27306;DHT22;14792;50.886;6.468;2023-12-22T14:49:18;9.30;99.90
27306;DHT22;14792;50.886;6.468;2023-12-22T15:04:16;9.40;99.90
27306;DHT22;14792;50.886;6.468;2023-12-22T15:23:16;9.30;99.90
27306;DHT22;14792;50.886;6.468;2023-12-22T15:42:15;9.30;99.90
27306;DHT22;14792;50.886;6.468;2023-12-22T15:53:15;9.30;99.90
27306;DHT22;14792;50.886;6.468;2023-12-22T15:56:17;9.30;99.90
27306;DHT22;14792;50.886;6.468;2023-12-22T16:03:15;9.30;99.90
27306;DHT22;14792;50.886;6.468;2023-12-22T16:06:17;9.20;99.90
27306;DHT22;14792;50.886;6.468;2023-12-22T16:17:14;9.20;99.90
27306;DHT22;14792;50.886;6.468;2023-12-22T16:28:15;9.20;99.90
27306;DHT22;14792;50.886;6.468;2023-12-22T16:39:14;9.20;99.90
27306;DHT22;14792;50.886;6.468;2023-12-22T16:42:16;9.20;99.90
27306;DHT22;14792;50.886;6.468;2023-12-22T16:45:17;9.20;99.90
27306;DHT22;14792;50.886;6.468;2023-12-22T16:48:19;9.20;99.90
27306;DHT22;14792;50.886;6.468;2023-12-22T16:51:20;9.20;99.90
27306;DHT22;14792;50.886;6.468;2023-12-22T16:54:22;9.20;99.90
27306;DHT22;14792;50.886;6.468;2023-12-22T16:57:24;9.20;99.90
27306;DHT22;14792;50.886;6.468;2023-12-22T17:00:25;9.20;99.90
27306;DHT22;14792;50.886;6.468;2023-12-22T17:03:27;9.20;99.90
27306;DHT22;14792;50.886;6.468;2023-12-22T17:06:29;9.20;99.90
27306;DHT22;14792;50.886;6.468;2023-12-22T17:09:30;9.20;99.90
27306;DHT22;14792;50.886;6.468;2023-12-22T17:12:32;9.20;99.90
27306;DHT22;14792;50.886;6.468;2023-12-22T17:15:34;9.30;99.90
27306;DHT22;14792;50.886;6.468;2023-12-22T17:18:35;9.30;99.90
27306;DHT22;14792;50.886;6.468;2023-12-22T17:21:37;9.30;99.90
27306;DHT22;14792;50.886;6.468;2023-12-22T17:24:39;9.30;99.90
27306;DHT22;14792;50.886;6.468;2023-12-22T17:27:40;9.30;99.90
27306;DHT22;14792;50.886;6.468;2023-12-22T17:30:42;9.40;99.90
27306;DHT22;14792;50.886;6.468;2023-12-22T17:33:43;9.40;99.90
27306;DHT22;14792;50.886;6.468;2023-12-22T17:36:45;9.30;99.90
27306;DHT22;14792;50.886;6.468;2023-12-22T17:39:47;9.30;99.90
27306;DHT22;14792;50.886;6.468;2023-12-22T17:42:48;9.40;99.90
27306;DHT22;14792;50.886;6.468;2023-12-22T17:45:53;9.40;99.90
27306;DHT22;14792;50.886;6.468;2023-12-22T17:48:54;9.40;99.90
27306;DHT22;14792;50.886;6.468;2023-12-22T17:51:56;9.50;99.90
27306;DHT22;14792;50.886;6.468;2023-12-22T17:54:58;9.50;99.90
27306;DHT22;14792;50.886;6.468;2023-12-22T17:57:59;9.50;99.90
27306;DHT22;14792;50.886;6.468;2023-12-22T18:01:01;9.50;99.90
27306;DHT22;14792;50.886;6.468;2023-12-22T18:04:02;9.50;99.90
27306;DHT22;14792;50.886;6.468;2023-12-22T18:07:04;9.60;99.90
27306;DHT22;14792;50.886;6.468;2023-12-22T18:10:06;9.60;99.90
27306;DHT22;14792;50.886;6.468;2023-12-22T18:13:07;9.60;99.90
27306;DHT22;14792;50.886;6.468;2023-12-22T18:16:09;9.60;99.90
27306;DHT22;14792;50.886;6.468;2023-12-22T18:19:10;9.70;99.90
27306;DHT22;14792;50.886;6.468;2023-12-22T18:22:12;9.70;99.90
27306;DHT22;14792;50.886;6.468;2023-12-22T18:25:14;9.80;99.90
27306;DHT22;14792;50.886;6.468;2023-12-22T18:28:15;9.80;99.90
27306;DHT22;14792;50.886;6.468;2023-12-22T18:31:17;9.80;99.90
27306;DHT22;14792;50.886;6.468;2023-12-22T18:34:18;9.80;99.90
27306;DHT22;14792;50.886;6.468;2023-12-22T18:37:20;9.80;99.90
27306;DHT22;14792;50.886;6.468;2023-12-22T18:40:22;9.70;99.90
27306;DHT22;14792;50.886;6.468;2023-12-22T18:43:23;9.70;99.90
27306;DHT22;14792;50.886;6.468;2023-12-22T18:46:25;9.80;99.90
27306;DHT22;14792;50.886;6.468;2023-12-22T18:49:27;9.80;99.90
27306;DHT22;14792;50.886;6.468;2023-12-22T18:52:28;9.90;99.90
27306;DHT22;14792;50.886;6.468;2023-12-22T18:55:30;9.90;99.90
27306;DHT22;14792;50.886;6.468;2023-12-22T18:58:31;9.90;99.90
27306;DHT22;14792;50.886;6.468;2023-12-22T19:01:33;9.90;99.90
27306;DHT22;14792;50.886;6.468;2023-12-22T19:04:34;9.90;99.90
27306;DHT22;14792;50.886;6.468;2023-12-22T19:07:36;9.90;99.90
27306;DHT22;14792;50.886;6.468;2023-12-22T19:10:38;10.00;99.90
27306;DHT22;14792;50.886;6.468;2023-12-22T19:13:39;10.00;99.90
27306;DHT22;14792;50.886;6.468;2023-12-22T19:16:41;10.00;99.90
27306;DHT22;14792;50.886;6.468;2023-12-22T19:19:42;10.00;99.90
27306;DHT22;14792;50.886;6.468;2023-12-22T19:22:44;10.00;99.90
27306;DHT22;14792;50.886;6.468;2023-12-22T19:25:46;10.00;99.90
27306;DHT22;14792;50.886;6.468;2023-12-22T19:28:47;10.00;99.90
27306;DHT22;14792;50.886;6.468;2023-12-22T19:31:49;10.00;99.90
27306;DHT22;14792;50.886;6.468;2023-12-22T19:34:50;10.00;99.90
27306;DHT22;14792;50.886;6.468;2023-12-22T19:37:52;10.00;99.90
27306;DHT22;14792;50.886;6.468;2023-12-22T19:40:54;10.10;99.90
27306;DHT22;14792;50.886;6.468;2023-12-22T19:43:55;10.10;99.90
27306;DHT22;14792;50.886;6.468;2023-12-22T19:46:57;10.10;99.90
27306;DHT22;14792;50.886;6.468;2023-12-22T19:49:58;10.00;99.90
27306;DHT22;14792;50.886;6.468;2023-12-22T19:53:00;10.00;99.90
27306;DHT22;14792;50.886;6.468;2023-12-22T19:56:01;10.10;99.90
27306;DHT22;14792;50.886;6.468;2023-12-22T19:59:03;10.10;99.90
27306;DHT22;14792;50.886;6.468;2023-12-22T20:02:05;10.10;99.90
27306;DHT22;14792;50.886;6.468;2023-12-22T20:05:06;10.00;99.90
27306;DHT22;14792;50.886;6.468;2023-12-22T20:08:08;9.90;99.90
27306;DHT22;14792;50.886;6.468;2023-12-22T20:11:09;9.80;99.90
27306;DHT22;14792;50.886;6.468;2023-12-22T20:14:11;9.90;99.90
27306;DHT22;14792;50.886;6.468;2023-12-22T20:17:13;9.90;99.90
27306;DHT22;14792;50.886;6.468;2023-12-22T20:20:17;9.80;99.90
27306;DHT22;14792;50.886;6.468;2023-12-22T20:23:16;9.80;99.90
27306;DHT22;14792;50.886;6.468;2023-12-22T20:26:17;9.90;99.90
27306;DHT22;14792;50.886;6.468;2023-12-22T20:29:19;9.90;99.90
27306;DHT22;14792;50.886;6.468;2023-12-22T20:32:20;9.80;99.90
27306;DHT22;14792;50.886;6.468;2023-12-22T20:35:22;9.90;99.90
27306;DHT22;14792;50.886;6.468;2023-12-22T20:38:24;9.90;99.90
27306;DHT22;14792;50.886;6.468;2023-12-22T20:41:25;9.90;99.90
27306;DHT22;14792;50.886;6.468;2023-12-22T20:44:27;9.90;99.90
27306;DHT22;14792;50.886;6.468;2023-12-22T20:47:28;9.80;99.90
27306;DHT22;14792;50.886;6.468;2023-12-22T20:50:30;9.80;99.90
27306;DHT22;14792;50.886;6.468;2023-12-22T20:53:32;9.80;99.90
27306;DHT22;14792;50.886;6.468;2023-12-22T20:56:33;9.70;99.90
27306;DHT22;14792;50.886;6.468;2023-12-22T20:59:35;9.80;99.90
27306;DHT22;14792;50.886;6.468;2023-12-22T21:02:36;9.80;99.90
27306;DHT22;14792;50.886;6.468;2023-12-22T21:05:38;9.70;99.90
27306;DHT22;14792;50.886;6.468;2023-12-22T21:08:39;9.60;99.90
27306;DHT22;14792;50.886;6.468;2023-12-22T21:11:41;9.70;99.90
27306;DHT22;14792;50.886;6.468;2023-12-22T21:14:43;9.80;99.90
27306;DHT22;14792;50.886;6.468;2023-12-22T21:17:44;9.80;99.90
27306;DHT22;14792;50.886;6.468;2023-12-22T21:20:46;9.90;99.90
27306;DHT22;14792;50.886;6.468;2023-12-22T21:23:47;9.90;99.90
27306;DHT22;14792;50.886;6.468;2023-12-22T21:26:49;9.90;99.90
27306;DHT22;14792;50.886;6.468;2023-12-22T21:29:51;9.90;99.90
27306;DHT22;14792;50.886;6.468;2023-12-22T21:32:52;10.00;99.90
27306;DHT22;14792;50.886;6.468;2023-12-22T21:35:54;10.00;99.90
27306;DHT22;14792;50.886;6.468;2023-12-22T21:38:56;10.00;99.90
27306;DHT22;14792;50.886;6.468;2023-12-22T21:41:57;10.00;99.90
27306;DHT22;14792;50.886;6.468;2023-12-22T21:44:59;9.90;99.90
27306;DHT22;14792;50.886;6.468;2023-12-22T21:48:00;9.90;99.90
27306;DHT22;14792;50.886;6.468;2023-12-22T21:51:05;10.00;99.90
27306;DHT22;14792;50.886;6.468;2023-12-22T21:54:06;10.00;99.90
27306;DHT22;14792;50.886;6.468;2023-12-22T21:57:08;9.90;99.90
27306;DHT22;14792;50.886;6.468;2023-12-22T22:00:11;10.00;99.90
27306;DHT22;14792;50.886;6.468;2023-12-22T22:03:12;10.00;99.90
27306;DHT22;14792;50.886;6.468;2023-12-22T22:06:14;10.00;99.90
27306;DHT22;14792;50.886;6.468;2023-12-22T22:09:16;10.00;99.90
27306;DHT22;14792;50.886;6.468;2023-12-22T22:12:17;10.00;99.90
27306;DHT22;14792;50.886;6.468;2023-12-22T22:15:19;10.00;99.90
27306;DHT22;14792;50.886;6.468;2023-12-22T22:18:20;9.90;99.90
27306;DHT22;14792;50.886;6.468;2023-12-22T22:21:22;10.00;99.90
27306;DHT22;14792;50.886;6.468;2023-12-22T22:24:24;9.90;99.90
27306;DHT22;14792;50.886;6.468;2023-12-22T22:27:25;9.90;99.90
27306;DHT22;14792;50.886;6.468;2023-12-22T22:30:27;9.80;99.90
27306;DHT22;14792;50.886;6.468;2023-12-22T22:33:29;9.80;99.90
27306;DHT22;14792;50.886;6.468;2023-12-22T22:36:31;9.70;99.90
27306;DHT22;14792;50.886;6.468;2023-12-22T22:39:32;9.30;99.90
27306;DHT22;14792;50.886;6.468;2023-12-22T22:42:34;8.70;99.90
27306;DHT22;14792;50.886;6.468;2023-12-22T22:45:36;8.30;99.90
27306;DHT22;14792;50.886;6.468;2023-12-22T22:48:38;7.90;99.90
27306;DHT22;14792;50.886;6.468;2023-12-22T22:51:39;7.60;99.90
27306;DHT22;14792;50.886;6.468;2023-12-22T22:54:41;7.50;99.90
27306;DHT22;14792;50.886;6.468;2023-12-22T22:57:43;7.50;99.90
27306;DHT22;14792;50.886;6.468;2023-12-22T23:00:45;7.40;99.90
27306;DHT22;14792;50.886;6.468;2023-12-22T23:03:46;7.40;99.90
27306;DHT22;14792;50.886;6.468;2023-12-22T23:06:48;7.40;99.90
27306;DHT22;14792;50.886;6.468;2023-12-22T23:09:49;7.40;99.90
27306;DHT22;14792;50.886;6.468;2023-12-22T23:12:51;7.40;99.90
27306;DHT22;14792;50.886;6.468;2023-12-22T23:15:52;7.40;99.90
27306;DHT22;14792;50.886;6.468;2023-12-22T23:18:54;7.40;99.90
27306;DHT22;14792;50.886;6.468;2023-12-22T23:21:56;7.40;99.90
27306;DHT22;14792;50.886;6.468;2023-12-22T23:24:57;7.40;99.90
27306;DHT22;14792;50.886;6.468;2023-12-22T23:27:59;7.40;99.90